createdAt,value
2023-02-15T00:01:48.038Z,20.23
2023-02-15T00:04:51.402Z,20.27
2023-02-15T00:07:54.452Z,17.77
2023-02-15T00:11:13.270Z,22.13
2023-02-15T00:14:22.646Z,21.67
2023-02-15T00:17:28.915Z,18.23
2023-02-15T00:20:34.022Z,19.67
2023-02-15T00:23:40.931Z,22.08
2023-02-15T00:26:45.114Z,12.63
2023-02-15T00:29:48.705Z,25.67
2023-02-15T00:32:51.981Z,18.37
2023-02-15T00:36:00.170Z,20.20
2023-02-15T00:39:04.013Z,18.98
2023-02-15T00:42:07.348Z,18.10
2023-02-15T00:45:13.734Z,23.23
2023-02-15T00:48:19.102Z,20.33
2023-02-15T00:51:22.107Z,22.42
2023-02-15T00:54:25.407Z,26.17
2023-02-15T00:57:28.290Z,18.73
2023-02-15T01:00:38.083Z,15.75
2023-02-15T01:03:43.391Z,15.02
2023-02-15T01:06:46.641Z,25.73
2023-02-15T01:09:54.355Z,21.55
2023-02-15T01:13:12.793Z,21.17
2023-02-15T01:16:33.570Z,15.85
2023-02-15T01:19:39.049Z,16.08
2023-02-15T01:22:45.424Z,17.48
2023-02-15T01:25:49.001Z,26.73
2023-02-15T01:28:54.330Z,18.37
2023-02-15T01:31:59.466Z,13.85
2023-02-15T01:35:27.721Z,18.83
2023-02-15T01:38:33.973Z,19.45
2023-02-15T01:41:39.048Z,19.65
2023-02-15T01:44:48.462Z,14.80
2023-02-15T01:48:06.559Z,18.95
2023-02-15T01:51:10.246Z,16.85
2023-02-15T01:54:28.697Z,19.52
2023-02-15T01:57:32.564Z,22.30
2023-02-15T02:00:38.022Z,15.27
2023-02-15T02:03:49.821Z,13.85
2023-02-15T02:06:58.397Z,21.58
2023-02-15T02:10:02.788Z,16.00
2023-02-15T02:13:44.265Z,14.75
2023-02-15T02:17:47.583Z,14.55
2023-02-15T02:21:35.966Z,15.52
2023-02-15T02:25:15.827Z,19.23
2023-02-15T02:28:54.042Z,18.95
2023-02-15T02:32:56.041Z,16.45
2023-02-15T02:36:52.808Z,17.10
2023-02-15T02:40:32.947Z,15.90
2023-02-15T02:43:50.580Z,23.98
2023-02-15T02:47:25.422Z,21.50
2023-02-15T02:51:01.171Z,18.05
2023-02-15T02:54:18.966Z,18.25
2023-02-15T02:57:41.222Z,19.27
2023-02-15T03:01:14.096Z,20.62
2023-02-15T03:04:36.878Z,14.50
2023-02-15T03:08:23.053Z,18.50
2023-02-15T03:11:40.056Z,17.42
2023-02-15T03:15:08.479Z,14.07
2023-02-15T03:18:53.863Z,20.95
2023-02-15T03:22:26.547Z,15.32
2023-02-15T03:26:00.042Z,13.27
2023-02-15T03:29:23.401Z,22.80
2023-02-15T03:32:42.439Z,15.38
2023-02-15T03:36:12.666Z,11.88
2023-02-15T03:39:56.934Z,12.50
2023-02-15T03:43:23.856Z,11.00
2023-02-15T03:46:53.600Z,6.35
2023-02-15T03:50:37.896Z,10.52
2023-02-15T03:53:58.349Z,12.75
2023-02-15T03:57:56.503Z,12.50
2023-02-15T04:01:44.733Z,6.25
2023-02-15T04:05:05.100Z,11.02
2023-02-15T04:08:58.743Z,8.90
2023-02-15T04:12:20.970Z,10.10
2023-02-15T04:16:05.606Z,9.70
2023-02-15T04:19:40.678Z,9.68
2023-02-15T04:23:18.620Z,11.60
2023-02-15T04:26:35.705Z,7.85
2023-02-15T04:33:28.654Z,9.48
2023-02-15T04:36:51.287Z,10.68
2023-02-15T04:40:10.729Z,6.15
2023-02-15T04:43:45.188Z,11.12
2023-02-15T04:47:02.857Z,8.05
2023-02-15T04:50:38.268Z,19.62
2023-02-15T04:53:58.020Z,10.95
2023-02-15T04:57:33.590Z,10.77
2023-02-15T05:01:04.828Z,9.90
2023-02-15T05:04:37.250Z,26.12
2023-02-15T05:07:55.020Z,10.52
2023-02-15T05:11:12.740Z,9.82
2023-02-15T05:14:47.449Z,10.07
2023-02-15T05:18:23.481Z,8.57
2023-02-15T05:21:40.827Z,6.72
2023-02-15T05:25:30.197Z,6.57
2023-02-15T05:28:47.527Z,11.77
2023-02-15T05:32:05.539Z,15.23
2023-02-15T05:35:38.237Z,8.13
2023-02-15T05:39:14.223Z,7.93
2023-02-15T05:42:34.289Z,12.85
2023-02-15T05:45:56.950Z,10.98
2023-02-15T05:49:32.449Z,7.72
2023-02-15T05:53:07.653Z,8.77
2023-02-15T05:56:28.235Z,8.45
2023-02-15T06:00:07.995Z,6.03
2023-02-15T06:03:29.770Z,5.12
2023-02-15T06:07:05.953Z,9.77
2023-02-15T06:10:28.198Z,13.93
2023-02-15T06:13:48.499Z,9.43
2023-02-15T06:17:23.060Z,6.10
2023-02-15T06:20:45.576Z,12.98
2023-02-15T06:24:20.089Z,7.72
2023-02-15T06:27:55.850Z,8.75
2023-02-15T06:31:31.876Z,7.07
2023-02-15T06:34:50.550Z,8.95
2023-02-15T06:38:10.089Z,7.60
2023-02-15T06:41:27.711Z,7.22
2023-02-15T06:48:20.164Z,8.07
2023-02-15T06:51:37.754Z,17.17
2023-02-15T06:55:08.693Z,8.02
2023-02-15T06:58:46.955Z,19.40
2023-02-15T07:05:49.039Z,7.35
2023-02-15T07:09:28.858Z,10.80
2023-02-15T07:13:08.865Z,12.82
2023-02-15T07:16:41.179Z,15.82
2023-02-15T07:20:03.920Z,16.10
2023-02-15T07:23:26.640Z,11.95
2023-02-15T07:27:03.292Z,12.55
2023-02-15T07:30:38.792Z,20.70
2023-02-15T07:33:58.534Z,16.98
2023-02-15T07:37:31.188Z,14.82
2023-02-15T07:41:08.351Z,20.88
2023-02-15T07:44:35.545Z,18.83
2023-02-15T07:48:08.671Z,18.58
2023-02-15T07:55:15.809Z,11.02
2023-02-15T07:58:53.106Z,14.98
2023-02-15T08:02:17.501Z,17.45
2023-02-15T08:05:50.652Z,14.98
2023-02-15T08:09:09.853Z,14.02
2023-02-15T08:12:32.204Z,16.60
2023-02-15T08:16:05.953Z,18.30
2023-02-15T08:19:38.890Z,26.80
2023-02-15T08:23:11.167Z,19.35
2023-02-15T08:26:33.516Z,16.40
2023-02-15T08:30:09.678Z,23.00
2023-02-15T08:33:31.650Z,17.30
2023-02-15T08:37:07.323Z,18.42
2023-02-15T08:40:25.294Z,14.30
2023-02-15T08:44:03.020Z,23.17
2023-02-15T08:47:20.683Z,23.40
2023-02-15T08:50:47.613Z,26.65
2023-02-15T08:54:22.796Z,16.33
2023-02-15T08:57:45.976Z,19.08
2023-02-15T09:01:23.945Z,20.58
2023-02-15T09:08:29.930Z,16.98
2023-02-15T09:12:03.639Z,14.02
2023-02-15T09:15:36.293Z,19.00
2023-02-15T09:19:09.661Z,15.77
2023-02-15T09:22:42.284Z,15.30
2023-02-15T09:26:21.159Z,17.55
2023-02-15T09:29:47.638Z,18.67
2023-02-15T09:33:27.088Z,18.05
2023-02-15T09:36:54.811Z,28.17
2023-02-15T09:40:24.661Z,24.35
2023-02-15T09:44:14.702Z,21.67
2023-02-15T09:48:13.602Z,17.70
2023-02-15T09:52:16.123Z,24.50
2023-02-15T09:56:21.028Z,22.40
2023-02-15T10:00:14.598Z,25.50
2023-02-15T10:04:08.726Z,28.55
2023-02-15T10:07:44.639Z,26.58
2023-02-15T10:11:24.748Z,25.98
2023-02-15T10:15:25.138Z,25.00
2023-02-15T10:19:10.690Z,22.02
2023-02-15T10:23:20.403Z,26.80
2023-02-15T10:27:03.990Z,23.08
2023-02-15T10:30:46.129Z,26.37
2023-02-15T10:34:38.649Z,20.30
2023-02-15T10:38:16.012Z,23.38
2023-02-15T10:42:10.950Z,22.37
2023-02-15T10:46:06.234Z,25.05
2023-02-15T10:50:01.282Z,19.95
2023-02-15T10:54:05.383Z,31.20
2023-02-15T10:58:03.543Z,28.02
2023-02-15T11:01:58.644Z,20.93
2023-02-15T11:06:01.757Z,26.23
2023-02-15T11:09:40.375Z,19.83
2023-02-15T11:13:19.677Z,26.05
2023-02-15T11:17:32.072Z,31.83
2023-02-15T11:21:22.997Z,32.05
2023-02-15T11:24:48.040Z,25.90
2023-02-15T11:28:44.281Z,28.98
2023-02-15T11:32:24.813Z,30.98
2023-02-15T11:36:33.671Z,37.17
2023-02-15T11:40:29.559Z,35.38
2023-02-15T11:44:40.574Z,31.17
2023-02-15T11:48:18.919Z,31.75
2023-02-15T11:52:06.222Z,30.35
2023-02-15T11:55:40.896Z,29.17
2023-02-15T11:59:22.887Z,26.92
2023-02-15T12:02:59.533Z,26.40
2023-02-15T12:06:42.401Z,24.25
2023-02-15T12:10:36.026Z,21.40
2023-02-15T12:14:12.976Z,27.42
2023-02-15T12:17:57.828Z,23.73
2023-02-15T12:21:40.980Z,22.45
2023-02-15T12:25:27.445Z,22.90
2023-02-15T12:29:03.299Z,24.23
2023-02-15T12:32:50.166Z,23.95
2023-02-15T12:36:31.195Z,23.80
2023-02-15T12:40:31.685Z,28.45
2023-02-15T12:44:07.489Z,25.45
2023-02-15T12:47:39.824Z,22.52
2023-02-15T12:51:20.791Z,21.60
2023-02-15T12:55:23.583Z,22.33
2023-02-15T12:59:06.308Z,21.08
2023-02-15T13:02:47.450Z,22.52
2023-02-15T13:06:21.910Z,28.85
2023-02-15T13:09:54.724Z,25.08
2023-02-15T13:13:44.042Z,20.62
2023-02-15T13:17:11.018Z,18.02
2023-02-15T13:21:01.625Z,20.60
2023-02-15T13:25:01.800Z,20.50
2023-02-15T13:29:09.751Z,24.48
2023-02-15T13:32:41.895Z,26.30
2023-02-15T13:36:21.449Z,21.70
2023-02-15T13:40:00.403Z,25.90
2023-02-15T13:43:59.577Z,23.27
2023-02-15T13:47:47.699Z,23.27
2023-02-15T13:52:17.376Z,23.52
2023-02-15T13:56:07.444Z,22.83
2023-02-15T13:59:50.244Z,22.35
2023-02-15T14:03:49.435Z,21.73
2023-02-15T14:07:43.312Z,22.67
2023-02-15T14:11:24.933Z,20.40
2023-02-15T14:15:35.081Z,20.27
2023-02-15T14:19:17.572Z,23.73
2023-02-15T14:23:02.359Z,17.42
2023-02-15T14:27:12.101Z,19.85
2023-02-15T14:30:41.734Z,18.25
2023-02-15T14:34:31.343Z,23.85
2023-02-15T14:38:22.757Z,20.88
2023-02-15T14:42:03.590Z,22.10
2023-02-15T14:46:01.791Z,18.92
2023-02-15T14:49:41.120Z,18.73
2023-02-15T14:53:36.904Z,22.83
2023-02-15T14:57:15.873Z,22.62
2023-02-15T15:00:49.261Z,20.70
2023-02-15T15:04:14.593Z,23.65
2023-02-15T15:08:00.239Z,22.17
2023-02-15T15:11:50.438Z,16.52
2023-02-15T15:15:29.650Z,20.17
2023-02-15T15:19:11.871Z,23.58
2023-02-15T15:22:51.142Z,16.67
2023-02-15T15:26:41.848Z,20.98
2023-02-15T15:30:20.294Z,17.62
2023-02-15T15:34:41.202Z,14.82
2023-02-15T15:38:38.484Z,16.33
2023-02-15T15:42:37.560Z,21.00
2023-02-15T15:46:47.214Z,16.85
2023-02-15T15:50:23.902Z,13.45
2023-02-15T15:53:59.118Z,21.98
2023-02-15T15:57:45.394Z,21.95
2023-02-15T16:01:27.228Z,18.55
2023-02-15T16:05:10.125Z,22.13
2023-02-15T16:08:47.763Z,20.15
2023-02-15T16:12:23.693Z,23.02
2023-02-15T16:16:00.892Z,26.10
2023-02-15T16:19:45.456Z,32.40
2023-02-15T16:23:27.235Z,27.85
2023-02-15T16:27:19.161Z,31.17
2023-02-15T16:31:15.579Z,28.20
2023-02-15T16:35:03.019Z,31.35
2023-02-15T16:38:45.597Z,30.77
2023-02-15T16:42:19.629Z,35.90
2023-02-15T16:46:04.433Z,24.52
2023-02-15T16:49:46.576Z,31.77
2023-02-15T16:53:27.966Z,28.12
2023-02-15T16:57:05.370Z,25.25
2023-02-15T17:00:44.589Z,34.83
2023-02-15T17:04:24.301Z,26.65
2023-02-15T17:08:03.338Z,31.10
2023-02-15T17:11:45.392Z,38.75
2023-02-15T17:15:33.347Z,28.92
2023-02-15T17:19:17.648Z,24.92
2023-02-15T17:26:39.239Z,20.52
2023-02-15T17:30:41.698Z,28.62
2023-02-15T17:34:43.113Z,26.40
2023-02-15T17:38:21.839Z,28.52
2023-02-15T17:41:54.665Z,26.52
2023-02-15T17:45:34.831Z,34.30
2023-02-15T17:49:29.731Z,26.85
2023-02-15T17:53:04.605Z,27.75
2023-02-15T17:56:41.201Z,22.23
2023-02-15T18:00:35.238Z,31.05
2023-02-15T18:04:34.698Z,35.38
2023-02-15T18:08:30.555Z,23.55
2023-02-15T18:15:48.905Z,41.30
2023-02-15T18:19:26.216Z,40.63
2023-02-15T18:23:06.731Z,39.28
2023-02-15T18:26:39.893Z,35.35
2023-02-15T18:30:22.448Z,29.37
2023-02-15T18:33:36.672Z,39.05
2023-02-15T18:37:06.052Z,26.50
2023-02-15T18:40:22.584Z,46.33
2023-02-15T18:43:25.451Z,37.72
2023-02-15T18:46:35.035Z,37.58
2023-02-15T18:50:20.276Z,38.20
2023-02-15T18:53:25.108Z,42.00
2023-02-15T18:56:57.341Z,28.17
2023-02-15T19:00:01.216Z,30.70
2023-02-15T19:03:08.579Z,41.60
2023-02-15T19:06:15.696Z,46.95
2023-02-15T19:09:26.583Z,26.42
2023-02-15T19:12:34.136Z,41.00
2023-02-15T19:15:45.718Z,33.85
2023-02-15T19:18:49.728Z,43.55
2023-02-15T19:21:57.327Z,30.17
2023-02-15T19:25:33.978Z,44.20
2023-02-15T19:31:43.478Z,18.85
2023-02-15T19:34:48.890Z,32.47
2023-02-15T19:37:54.759Z,29.20
2023-02-15T19:41:07.033Z,33.05
2023-02-15T19:44:12.821Z,27.48
2023-02-15T19:47:18.482Z,30.67
2023-02-15T19:50:29.506Z,34.45
2023-02-15T19:53:35.603Z,41.47
2023-02-15T19:56:42.377Z,29.55
2023-02-15T19:59:46.687Z,27.00
2023-02-15T20:02:53.115Z,39.58
2023-02-15T20:06:05.602Z,42.55
2023-02-15T20:09:35.461Z,23.87
2023-02-15T20:12:47.565Z,28.87
2023-02-15T20:16:11.006Z,38.83
2023-02-15T20:19:35.212Z,38.22
2023-02-15T20:22:40.941Z,31.73
2023-02-15T20:25:49.620Z,33.03
2023-02-15T20:28:54.958Z,30.75
2023-02-15T20:32:03.477Z,33.30
2023-02-15T20:35:07.359Z,33.30
2023-02-15T20:38:17.432Z,38.72
2023-02-15T20:41:38.980Z,41.10
2023-02-15T20:44:44.055Z,45.97
2023-02-15T20:47:50.800Z,28.65
2023-02-15T20:50:55.736Z,35.67
2023-02-15T20:54:00.625Z,35.58
2023-02-15T20:57:28.045Z,35.22
2023-02-15T21:00:33.283Z,31.77
2023-02-15T21:03:39.628Z,43.75
2023-02-15T21:06:45.503Z,43.25
2023-02-15T21:10:20.957Z,40.55
2023-02-15T21:13:33.039Z,34.05
2023-02-15T21:16:40.821Z,33.50
2023-02-15T21:19:44.014Z,45.65
2023-02-15T21:22:49.506Z,50.28
2023-02-15T21:25:56.696Z,32.85
2023-02-15T21:29:03.928Z,38.20
2023-02-15T21:32:10.955Z,38.20
2023-02-15T21:35:18.139Z,31.35
2023-02-15T21:38:31.329Z,44.50
2023-02-15T21:42:34.910Z,36.25
2023-02-15T21:45:56.639Z,31.35
2023-02-15T21:49:04.357Z,36.63
2023-02-15T21:52:12.681Z,45.50
2023-02-15T21:55:19.838Z,30.33
2023-02-15T21:58:27.429Z,51.25
2023-02-15T22:01:34.191Z,42.30
2023-02-15T22:04:37.159Z,30.60
2023-02-15T22:07:42.482Z,32.72
2023-02-15T22:10:49.997Z,32.38
2023-02-15T22:13:55.253Z,34.45
2023-02-15T22:17:01.888Z,28.70
2023-02-15T22:20:21.871Z,42.33
2023-02-15T22:23:25.745Z,35.75
2023-02-15T22:26:29.168Z,30.17
2023-02-15T22:29:33.285Z,30.58
2023-02-15T22:32:57.905Z,31.05
2023-02-15T22:36:03.943Z,32.60
2023-02-15T22:42:21.338Z,25.00
2023-02-15T22:45:25.570Z,26.25
2023-02-15T22:48:29.294Z,19.87
2023-02-15T22:51:42.292Z,24.23
2023-02-15T22:54:46.398Z,36.45
2023-02-15T22:57:52.000Z,23.35
2023-02-15T23:00:54.967Z,33.35
2023-02-15T23:03:58.086Z,29.75
2023-02-15T23:07:12.101Z,30.98
2023-02-15T23:10:21.280Z,24.98
2023-02-15T23:13:31.227Z,40.65
2023-02-15T23:16:37.391Z,20.33
2023-02-15T23:19:40.464Z,32.33
2023-02-15T23:22:46.388Z,19.75
2023-02-15T23:25:49.281Z,28.98
2023-02-15T23:28:57.318Z,28.62
2023-02-15T23:32:00.585Z,23.08
2023-02-15T23:35:18.080Z,40.75
2023-02-15T23:38:26.699Z,25.75
2023-02-15T23:41:33.385Z,22.65
2023-02-15T23:48:01.417Z,12.32
2023-02-15T23:51:06.650Z,13.93
2023-02-15T23:54:09.691Z,24.90
2023-02-15T23:57:23.946Z,24.45
